Kirklin, Indiana
Current Conditions -  °F | °C
As of 6:15 PM on Tuesday 25 Nov 2014 (Local Time) from KFKR Reporting Station
Overcast Overcast  
Wind Chill: 27°   Ceiling: 1300
Heat Index: 27°   Visibility: 10mi
Dew Point: 23°   Wind: 0mph
Humidity: 84%   Direction: NA
Pressure: 30.18"   Gusts: NA
Location:  40.19°N, 86.36°W
Report Text: KFKR 252315Z AUTO 00000KT 10SM OVC013 M03/M05 A3018 RMK AO2 T10271051
Loading
Personal Weather Stations






























Interactive Weather Map New forecast layout! Learn more

10-Day Weather Forecast

Advertisements
Track Severe Weather on mobile